sensor_id;sensor_type;location;lat;lon;timestamp;P1;durP1;ratioP1;P2;durP2;ratioP2
35990;SDS011;22064;42.672;23.282;2023-02-28T00:00:46;46.78;;;21.58;;
35990;SDS011;22064;42.672;23.282;2023-02-28T00:03:12;46.33;;;21.52;;
35990;SDS011;22064;42.672;23.282;2023-02-28T00:05:38;48.35;;;22.10;;
35990;SDS011;22064;42.672;23.282;2023-02-28T00:08:04;45.35;;;21.13;;
35990;SDS011;22064;42.672;23.282;2023-02-28T00:10:30;49.42;;;21.58;;
35990;SDS011;22064;42.672;23.282;2023-02-28T00:13:00;46.00;;;20.23;;
35990;SDS011;22064;42.672;23.282;2023-02-28T00:15:28;46.15;;;20.05;;
35990;SDS011;22064;42.672;23.282;2023-02-28T00:17:55;41.63;;;18.58;;
35990;SDS011;22064;42.672;23.282;2023-02-28T00:20:20;40.97;;;17.92;;
35990;SDS011;22064;42.672;23.282;2023-02-28T00:22:47;36.38;;;17.15;;
35990;SDS011;22064;42.672;23.282;2023-02-28T00:25:17;35.13;;;15.70;;
35990;SDS011;22064;42.672;23.282;2023-02-28T00:27:44;38.88;;;17.80;;
35990;SDS011;22064;42.672;23.282;2023-02-28T00:30:15;35.97;;;15.77;;
35990;SDS011;22064;42.672;23.282;2023-02-28T00:32:42;36.78;;;17.40;;
35990;SDS011;22064;42.672;23.282;2023-02-28T00:35:09;84.32;;;44.85;;
35990;SDS011;22064;42.672;23.282;2023-02-28T00:37:35;81.55;;;46.40;;
35990;SDS011;22064;42.672;23.282;2023-02-28T00:40:01;75.82;;;39.28;;
35990;SDS011;22064;42.672;23.282;2023-02-28T00:42:30;80.05;;;39.50;;
35990;SDS011;22064;42.672;23.282;2023-02-28T00:44:56;63.17;;;32.75;;
35990;SDS011;22064;42.672;23.282;2023-02-28T00:47:22;50.30;;;25.40;;
35990;SDS011;22064;42.672;23.282;2023-02-28T00:49:47;46.15;;;22.17;;
35990;SDS011;22064;42.672;23.282;2023-02-28T00:52:13;42.67;;;17.83;;
35990;SDS011;22064;42.672;23.282;2023-02-28T00:54:39;40.63;;;18.92;;
35990;SDS011;22064;42.672;23.282;2023-02-28T00:57:06;40.83;;;17.98;;
35990;SDS011;22064;42.672;23.282;2023-02-28T00:59:32;40.03;;;18.92;;
35990;SDS011;22064;42.672;23.282;2023-02-28T01:01:58;48.53;;;21.48;;
35990;SDS011;22064;42.672;23.282;2023-02-28T01:04:24;54.30;;;24.50;;
35990;SDS011;22064;42.672;23.282;2023-02-28T01:06:50;64.93;;;25.52;;
35990;SDS011;22064;42.672;23.282;2023-02-28T01:09:15;54.88;;;24.48;;
35990;SDS011;22064;42.672;23.282;2023-02-28T01:11:42;55.05;;;25.02;;
35990;SDS011;22064;42.672;23.282;2023-02-28T01:14:13;58.60;;;26.30;;
35990;SDS011;22064;42.672;23.282;2023-02-28T01:16:39;69.72;;;29.13;;
35990;SDS011;22064;42.672;23.282;2023-02-28T01:19:06;62.60;;;27.88;;
35990;SDS011;22064;42.672;23.282;2023-02-28T01:21:32;72.88;;;30.35;;
35990;SDS011;22064;42.672;23.282;2023-02-28T01:23:58;77.65;;;31.55;;
35990;SDS011;22064;42.672;23.282;2023-02-28T01:26:24;81.70;;;31.00;;
35990;SDS011;22064;42.672;23.282;2023-02-28T01:28:50;72.40;;;30.35;;
35990;SDS011;22064;42.672;23.282;2023-02-28T01:31:18;78.78;;;29.75;;
35990;SDS011;22064;42.672;23.282;2023-02-28T01:33:45;86.82;;;32.80;;
35990;SDS011;22064;42.672;23.282;2023-02-28T01:36:12;88.28;;;33.00;;
35990;SDS011;22064;42.672;23.282;2023-02-28T01:38:41;92.45;;;33.88;;
35990;SDS011;22064;42.672;23.282;2023-02-28T01:41:07;106.82;;;34.15;;
35990;SDS011;22064;42.672;23.282;2023-02-28T01:46:09;98.22;;;33.80;;
35990;SDS011;22064;42.672;23.282;2023-02-28T01:48:37;108.20;;;37.88;;
35990;SDS011;22064;42.672;23.282;2023-02-28T01:51:12;116.43;;;38.00;;
35990;SDS011;22064;42.672;23.282;2023-02-28T01:53:59;110.20;;;36.53;;
35990;SDS011;22064;42.672;23.282;2023-02-28T01:56:30;146.98;;;39.53;;
35990;SDS011;22064;42.672;23.282;2023-02-28T01:59:00;126.03;;;37.03;;
35990;SDS011;22064;42.672;23.282;2023-02-28T02:01:27;149.50;;;43.55;;
35990;SDS011;22064;42.672;23.282;2023-02-28T02:04:00;140.18;;;40.20;;
35990;SDS011;22064;42.672;23.282;2023-02-28T02:06:29;144.27;;;42.05;;
35990;SDS011;22064;42.672;23.282;2023-02-28T02:09:09;126.53;;;39.35;;
35990;SDS011;22064;42.672;23.282;2023-02-28T02:11:36;135.27;;;42.17;;
35990;SDS011;22064;42.672;23.282;2023-02-28T02:37:53;263.23;;;46.40;;
35990;SDS011;22064;42.672;23.282;2023-02-28T02:40:32;257.33;;;43.15;;
35990;SDS011;22064;42.672;23.282;2023-02-28T02:43:13;215.80;;;44.38;;
35990;SDS011;22064;42.672;23.282;2023-02-28T02:46:01;217.68;;;40.55;;
35990;SDS011;22064;42.672;23.282;2023-02-28T02:48:32;209.05;;;43.95;;
35990;SDS011;22064;42.672;23.282;2023-02-28T02:51:03;235.82;;;46.20;;
35990;SDS011;22064;42.672;23.282;2023-02-28T02:53:44;234.30;;;42.53;;
35990;SDS011;22064;42.672;23.282;2023-02-28T02:56:16;160.55;;;41.05;;
35990;SDS011;22064;42.672;23.282;2023-02-28T02:58:45;177.05;;;42.28;;
35990;SDS011;22064;42.672;23.282;2023-02-28T03:01:16;176.45;;;41.90;;
35990;SDS011;22064;42.672;23.282;2023-02-28T03:03:56;192.90;;;40.17;;
35990;SDS011;22064;42.672;23.282;2023-02-28T03:06:25;178.00;;;39.33;;
35990;SDS011;22064;42.672;23.282;2023-02-28T03:08:52;171.75;;;38.75;;
35990;SDS011;22064;42.672;23.282;2023-02-28T03:11:21;272.23;;;45.38;;
35990;SDS011;22064;42.672;23.282;2023-02-28T03:16:38;303.30;;;40.97;;
35990;SDS011;22064;42.672;23.282;2023-02-28T03:24:43;137.02;;;35.72;;
35990;SDS011;22064;42.672;23.282;2023-02-28T03:27:29;145.90;;;36.00;;
35990;SDS011;22064;42.672;23.282;2023-02-28T03:30:05;147.35;;;36.72;;
35990;SDS011;22064;42.672;23.282;2023-02-28T03:32:37;134.93;;;37.22;;
35990;SDS011;22064;42.672;23.282;2023-02-28T03:35:14;149.55;;;36.40;;
35990;SDS011;22064;42.672;23.282;2023-02-28T03:37:48;122.68;;;38.03;;
35990;SDS011;22064;42.672;23.282;2023-02-28T03:40:19;130.43;;;37.45;;
35990;SDS011;22064;42.672;23.282;2023-02-28T03:42:49;145.73;;;40.50;;
35990;SDS011;22064;42.672;23.282;2023-02-28T03:45:21;134.65;;;39.67;;
35990;SDS011;22064;42.672;23.282;2023-02-28T03:50:27;130.68;;;40.05;;
35990;SDS011;22064;42.672;23.282;2023-02-28T03:53:01;135.80;;;38.85;;
35990;SDS011;22064;42.672;23.282;2023-02-28T03:55:37;144.85;;;42.30;;
35990;SDS011;22064;42.672;23.282;2023-02-28T04:01:13;151.13;;;41.88;;
35990;SDS011;22064;42.672;23.282;2023-02-28T04:03:47;139.73;;;41.03;;
35990;SDS011;22064;42.672;23.282;2023-02-28T04:06:15;151.63;;;43.15;;
35990;SDS011;22064;42.672;23.282;2023-02-28T04:08:43;171.80;;;40.30;;
35990;SDS011;22064;42.672;23.282;2023-02-28T04:11:16;121.43;;;37.83;;
35990;SDS011;22064;42.672;23.282;2023-02-28T04:13:48;116.13;;;37.03;;
35990;SDS011;22064;42.672;23.282;2023-02-28T04:16:14;117.60;;;36.65;;
35990;SDS011;22064;42.672;23.282;2023-02-28T04:18:41;122.60;;;37.08;;
35990;SDS011;22064;42.672;23.282;2023-02-28T04:21:08;120.57;;;34.38;;
35990;SDS011;22064;42.672;23.282;2023-02-28T04:23:35;120.70;;;37.05;;
35990;SDS011;22064;42.672;23.282;2023-02-28T04:26:01;119.53;;;37.05;;
35990;SDS011;22064;42.672;23.282;2023-02-28T04:28:26;125.75;;;37.55;;
35990;SDS011;22064;42.672;23.282;2023-02-28T04:30:56;116.90;;;37.35;;
35990;SDS011;22064;42.672;23.282;2023-02-28T04:33:23;117.53;;;37.50;;
35990;SDS011;22064;42.672;23.282;2023-02-28T04:36:03;118.53;;;39.08;;
35990;SDS011;22064;42.672;23.282;2023-02-28T04:38:35;93.28;;;30.75;;
35990;SDS011;22064;42.672;23.282;2023-02-28T04:41:02;100.50;;;30.45;;
35990;SDS011;22064;42.672;23.282;2023-02-28T04:43:28;89.80;;;28.80;;
35990;SDS011;22064;42.672;23.282;2023-02-28T04:45:55;102.50;;;33.17;;
35990;SDS011;22064;42.672;23.282;2023-02-28T04:48:26;113.25;;;34.72;;
35990;SDS011;22064;42.672;23.282;2023-02-28T04:50:54;105.78;;;33.20;;
35990;SDS011;22064;42.672;23.282;2023-02-28T04:53:20;111.97;;;36.92;;
35990;SDS011;22064;42.672;23.282;2023-02-28T04:55:46;108.90;;;33.83;;
35990;SDS011;22064;42.672;23.282;2023-02-28T04:58:12;115.40;;;35.75;;
35990;SDS011;22064;42.672;23.282;2023-02-28T05:00:39;107.97;;;35.10;;
35990;SDS011;22064;42.672;23.282;2023-02-28T05:03:05;120.43;;;36.53;;
35990;SDS011;22064;42.672;23.282;2023-02-28T05:05:31;112.78;;;34.95;;
35990;SDS011;22064;42.672;23.282;2023-02-28T05:07:57;111.85;;;34.85;;
35990;SDS011;22064;42.672;23.282;2023-02-28T05:10:23;114.57;;;34.45;;
35990;SDS011;22064;42.672;23.282;2023-02-28T05:12:49;102.97;;;32.97;;
35990;SDS011;22064;42.672;23.282;2023-02-28T05:15:15;94.18;;;31.55;;
35990;SDS011;22064;42.672;23.282;2023-02-28T05:17:42;96.15;;;31.15;;
35990;SDS011;22064;42.672;23.282;2023-02-28T05:20:09;92.55;;;31.88;;
35990;SDS011;22064;42.672;23.282;2023-02-28T05:22:39;91.03;;;32.08;;
35990;SDS011;22064;42.672;23.282;2023-02-28T05:25:06;86.03;;;31.77;;
35990;SDS011;22064;42.672;23.282;2023-02-28T05:27:35;77.03;;;29.25;;
35990;SDS011;22064;42.672;23.282;2023-02-28T05:30:01;84.90;;;30.25;;
35990;SDS011;22064;42.672;23.282;2023-02-28T05:32:29;74.90;;;28.58;;
35990;SDS011;22064;42.672;23.282;2023-02-28T05:34:55;79.20;;;28.60;;
35990;SDS011;22064;42.672;23.282;2023-02-28T05:37:21;72.47;;;27.15;;
35990;SDS011;22064;42.672;23.282;2023-02-28T05:39:47;80.38;;;28.80;;
35990;SDS011;22064;42.672;23.282;2023-02-28T05:42:13;77.35;;;28.00;;
35990;SDS011;22064;42.672;23.282;2023-02-28T05:44:39;69.22;;;26.52;;
35990;SDS011;22064;42.672;23.282;2023-02-28T05:47:05;73.32;;;27.10;;
35990;SDS011;22064;42.672;23.282;2023-02-28T05:49:31;70.72;;;27.38;;
35990;SDS011;22064;42.672;23.282;2023-02-28T05:51:56;69.85;;;27.15;;
35990;SDS011;22064;42.672;23.282;2023-02-28T05:54:22;68.47;;;26.38;;
35990;SDS011;22064;42.672;23.282;2023-02-28T05:56:48;71.10;;;27.95;;
35990;SDS011;22064;42.672;23.282;2023-02-28T05:59:14;78.07;;;29.38;;
35990;SDS011;22064;42.672;23.282;2023-02-28T06:01:41;62.97;;;25.50;;
35990;SDS011;22064;42.672;23.282;2023-02-28T06:04:13;65.07;;;24.58;;
35990;SDS011;22064;42.672;23.282;2023-02-28T06:06:43;62.88;;;25.13;;
35990;SDS011;22064;42.672;23.282;2023-02-28T06:09:10;70.63;;;27.88;;
35990;SDS011;22064;42.672;23.282;2023-02-28T06:11:36;72.53;;;29.98;;
35990;SDS011;22064;42.672;23.282;2023-02-28T06:14:02;72.60;;;28.02;;
35990;SDS011;22064;42.672;23.282;2023-02-28T06:16:29;75.03;;;29.33;;
35990;SDS011;22064;42.672;23.282;2023-02-28T06:18:57;68.72;;;27.70;;
35990;SDS011;22064;42.672;23.282;2023-02-28T06:21:24;66.70;;;27.92;;
35990;SDS011;22064;42.672;23.282;2023-02-28T06:23:50;63.40;;;25.17;;
35990;SDS011;22064;42.672;23.282;2023-02-28T06:26:16;64.57;;;26.13;;
35990;SDS011;22064;42.672;23.282;2023-02-28T06:28:42;61.97;;;25.95;;
35990;SDS011;22064;42.672;23.282;2023-02-28T06:31:08;66.80;;;27.77;;
35990;SDS011;22064;42.672;23.282;2023-02-28T06:33:37;65.40;;;26.33;;
35990;SDS011;22064;42.672;23.282;2023-02-28T06:36:04;66.38;;;29.15;;
35990;SDS011;22064;42.672;23.282;2023-02-28T06:38:31;67.43;;;27.77;;
35990;SDS011;22064;42.672;23.282;2023-02-28T06:40:58;91.85;;;39.05;;
35990;SDS011;22064;42.672;23.282;2023-02-28T06:43:28;104.78;;;38.70;;
35990;SDS011;22064;42.672;23.282;2023-02-28T06:45:56;104.55;;;40.15;;
35990;SDS011;22064;42.672;23.282;2023-02-28T06:48:24;108.15;;;38.95;;
35990;SDS011;22064;42.672;23.282;2023-02-28T06:50:52;111.03;;;41.10;;
35990;SDS011;22064;42.672;23.282;2023-02-28T06:53:18;118.93;;;42.05;;
35990;SDS011;22064;42.672;23.282;2023-02-28T06:55:44;119.63;;;42.95;;
35990;SDS011;22064;42.672;23.282;2023-02-28T06:58:09;119.28;;;43.08;;
35990;SDS011;22064;42.672;23.282;2023-02-28T07:00:44;119.63;;;46.10;;
35990;SDS011;22064;42.672;23.282;2023-02-28T07:03:11;118.85;;;43.65;;
35990;SDS011;22064;42.672;23.282;2023-02-28T07:05:38;124.72;;;47.33;;
35990;SDS011;22064;42.672;23.282;2023-02-28T07:08:05;125.13;;;44.70;;
35990;SDS011;22064;42.672;23.282;2023-02-28T07:10:32;120.18;;;45.85;;
35990;SDS011;22064;42.672;23.282;2023-02-28T07:12:59;123.22;;;48.75;;
35990;SDS011;22064;42.672;23.282;2023-02-28T07:15:25;126.20;;;45.47;;
35990;SDS011;22064;42.672;23.282;2023-02-28T07:17:51;119.65;;;46.58;;
35990;SDS011;22064;42.672;23.282;2023-02-28T07:20:17;125.32;;;50.35;;
35990;SDS011;22064;42.672;23.282;2023-02-28T07:22:43;125.47;;;51.30;;
35990;SDS011;22064;42.672;23.282;2023-02-28T07:25:09;119.78;;;48.75;;
35990;SDS011;22064;42.672;23.282;2023-02-28T07:27:35;135.23;;;53.58;;
35990;SDS011;22064;42.672;23.282;2023-02-28T07:30:01;131.50;;;52.35;;
35990;SDS011;22064;42.672;23.282;2023-02-28T07:32:29;117.55;;;45.38;;
35990;SDS011;22064;42.672;23.282;2023-02-28T07:34:55;118.82;;;48.15;;
35990;SDS011;22064;42.672;23.282;2023-02-28T07:37:21;117.18;;;46.05;;
35990;SDS011;22064;42.672;23.282;2023-02-28T07:39:47;116.28;;;43.53;;
35990;SDS011;22064;42.672;23.282;2023-02-28T07:42:13;116.60;;;44.72;;
35990;SDS011;22064;42.672;23.282;2023-02-28T07:44:39;115.95;;;46.17;;
35990;SDS011;22064;42.672;23.282;2023-02-28T07:47:09;115.28;;;43.10;;
35990;SDS011;22064;42.672;23.282;2023-02-28T07:49:35;111.97;;;45.25;;
35990;SDS011;22064;42.672;23.282;2023-02-28T07:52:05;112.35;;;42.42;;
35990;SDS011;22064;42.672;23.282;2023-02-28T07:54:32;111.28;;;43.45;;
35990;SDS011;22064;42.672;23.282;2023-02-28T07:56:58;110.57;;;44.28;;
35990;SDS011;22064;42.672;23.282;2023-02-28T07:59:24;107.95;;;44.60;;
35990;SDS011;22064;42.672;23.282;2023-02-28T08:01:50;114.63;;;44.80;;
35990;SDS011;22064;42.672;23.282;2023-02-28T08:04:17;113.03;;;45.80;;
35990;SDS011;22064;42.672;23.282;2023-02-28T08:06:43;127.65;;;45.10;;
35990;SDS011;22064;42.672;23.282;2023-02-28T08:09:09;110.45;;;46.13;;
35990;SDS011;22064;42.672;23.282;2023-02-28T08:11:36;108.88;;;43.42;;
35990;SDS011;22064;42.672;23.282;2023-02-28T08:14:02;104.35;;;44.90;;
35990;SDS011;22064;42.672;23.282;2023-02-28T08:16:28;103.95;;;43.92;;
35990;SDS011;22064;42.672;23.282;2023-02-28T08:18:53;97.35;;;43.40;;
35990;SDS011;22064;42.672;23.282;2023-02-28T08:21:20;106.47;;;45.10;;
35990;SDS011;22064;42.672;23.282;2023-02-28T08:23:47;101.97;;;45.40;;
35990;SDS011;22064;42.672;23.282;2023-02-28T08:26:14;100.57;;;47.92;;
35990;SDS011;22064;42.672;23.282;2023-02-28T08:28:41;107.82;;;44.15;;
35990;SDS011;22064;42.672;23.282;2023-02-28T08:31:07;106.32;;;42.10;;
35990;SDS011;22064;42.672;23.282;2023-02-28T08:33:39;99.82;;;41.10;;
35990;SDS011;22064;42.672;23.282;2023-02-28T08:36:06;101.40;;;39.70;;
35990;SDS011;22064;42.672;23.282;2023-02-28T08:38:33;99.13;;;40.97;;
35990;SDS011;22064;42.672;23.282;2023-02-28T08:41:00;99.13;;;42.42;;
35990;SDS011;22064;42.672;23.282;2023-02-28T08:43:27;97.80;;;41.67;;
35990;SDS011;22064;42.672;23.282;2023-02-28T08:45:54;102.95;;;44.42;;
35990;SDS011;22064;42.672;23.282;2023-02-28T08:48:24;95.65;;;38.38;;
35990;SDS011;22064;42.672;23.282;2023-02-28T08:50:55;97.25;;;42.05;;
35990;SDS011;22064;42.672;23.282;2023-02-28T08:53:25;100.50;;;41.63;;
35990;SDS011;22064;42.672;23.282;2023-02-28T08:56:00;101.20;;;41.30;;
35990;SDS011;22064;42.672;23.282;2023-02-28T08:58:27;107.05;;;44.58;;
35990;SDS011;22064;42.672;23.282;2023-02-28T09:00:53;101.63;;;40.97;;
35990;SDS011;22064;42.672;23.282;2023-02-28T09:03:21;99.50;;;39.55;;
35990;SDS011;22064;42.672;23.282;2023-02-28T09:05:58;99.45;;;39.22;;
35990;SDS011;22064;42.672;23.282;2023-02-28T09:08:26;105.70;;;41.20;;
35990;SDS011;22064;42.672;23.282;2023-02-28T09:10:53;100.28;;;39.90;;
35990;SDS011;22064;42.672;23.282;2023-02-28T09:13:22;104.20;;;39.30;;
35990;SDS011;22064;42.672;23.282;2023-02-28T09:15:48;103.88;;;40.53;;
35990;SDS011;22064;42.672;23.282;2023-02-28T09:18:14;104.45;;;39.67;;
35990;SDS011;22064;42.672;23.282;2023-02-28T09:20:41;97.30;;;40.90;;
35990;SDS011;22064;42.672;23.282;2023-02-28T09:23:08;108.35;;;41.22;;
35990;SDS011;22064;42.672;23.282;2023-02-28T09:25:35;103.10;;;40.08;;
35990;SDS011;22064;42.672;23.282;2023-02-28T09:28:01;96.22;;;38.28;;
35990;SDS011;22064;42.672;23.282;2023-02-28T09:30:27;99.10;;;40.58;;
35990;SDS011;22064;42.672;23.282;2023-02-28T09:32:54;95.85;;;42.78;;
35990;SDS011;22064;42.672;23.282;2023-02-28T09:35:20;95.20;;;38.40;;
35990;SDS011;22064;42.672;23.282;2023-02-28T09:37:48;93.00;;;37.97;;
35990;SDS011;22064;42.672;23.282;2023-02-28T09:42:48;90.60;;;36.85;;
35990;SDS011;22064;42.672;23.282;2023-02-28T09:45:22;91.25;;;37.67;;
35990;SDS011;22064;42.672;23.282;2023-02-28T09:47:51;96.85;;;38.80;;
35990;SDS011;22064;42.672;23.282;2023-02-28T09:52:51;94.20;;;40.08;;
35990;SDS011;22064;42.672;23.282;2023-02-28T09:55:20;96.93;;;42.13;;
35990;SDS011;22064;42.672;23.282;2023-02-28T09:57:54;96.47;;;38.90;;
35990;SDS011;22064;42.672;23.282;2023-02-28T10:05:41;98.88;;;46.70;;
35990;SDS011;22064;42.672;23.282;2023-02-28T10:11:07;90.55;;;39.50;;
35990;SDS011;22064;42.672;23.282;2023-02-28T10:16:40;94.93;;;41.38;;
35990;SDS011;22064;42.672;23.282;2023-02-28T10:19:14;86.68;;;40.83;;
35990;SDS011;22064;42.672;23.282;2023-02-28T10:21:56;88.05;;;43.45;;
35990;SDS011;22064;42.672;23.282;2023-02-28T10:26:58;81.13;;;38.20;;
35990;SDS011;22064;42.672;23.282;2023-02-28T10:29:27;83.30;;;39.83;;
35990;SDS011;22064;42.672;23.282;2023-02-28T10:31:57;76.93;;;38.50;;
35990;SDS011;22064;42.672;23.282;2023-02-28T10:34:26;76.43;;;38.25;;
35990;SDS011;22064;42.672;23.282;2023-02-28T10:36:52;79.53;;;39.03;;
35990;SDS011;22064;42.672;23.282;2023-02-28T10:42:16;68.93;;;32.95;;
35990;SDS011;22064;42.672;23.282;2023-02-28T10:48:02;36.20;;;14.90;;
35990;SDS011;22064;42.672;23.282;2023-02-28T10:50:33;30.92;;;13.77;;
35990;SDS011;22064;42.672;23.282;2023-02-28T10:55:46;33.20;;;14.00;;
35990;SDS011;22064;42.672;23.282;2023-02-28T11:01:17;31.85;;;13.55;;
35990;SDS011;22064;42.672;23.282;2023-02-28T11:03:46;29.52;;;12.60;;
35990;SDS011;22064;42.672;23.282;2023-02-28T11:06:19;32.65;;;13.60;;
35990;SDS011;22064;42.672;23.282;2023-02-28T11:08:55;30.95;;;12.82;;
35990;SDS011;22064;42.672;23.282;2023-02-28T11:11:24;32.00;;;13.60;;
35990;SDS011;22064;42.672;23.282;2023-02-28T11:16:19;33.80;;;13.57;;
35990;SDS011;22064;42.672;23.282;2023-02-28T11:18:50;36.30;;;12.30;;
35990;SDS011;22064;42.672;23.282;2023-02-28T11:21:26;31.50;;;12.98;;
35990;SDS011;22064;42.672;23.282;2023-02-28T11:23:58;36.65;;;13.85;;
35990;SDS011;22064;42.672;23.282;2023-02-28T11:26:39;30.60;;;13.38;;
35990;SDS011;22064;42.672;23.282;2023-02-28T11:29:10;31.77;;;12.63;;
35990;SDS011;22064;42.672;23.282;2023-02-28T11:32:11;31.10;;;13.93;;
35990;SDS011;22064;42.672;23.282;2023-02-28T11:34:59;31.45;;;13.82;;
35990;SDS011;22064;42.672;23.282;2023-02-28T11:37:28;33.75;;;13.25;;
35990;SDS011;22064;42.672;23.282;2023-02-28T11:39:55;33.35;;;14.00;;
35990;SDS011;22064;42.672;23.282;2023-02-28T11:45:03;34.60;;;14.20;;
35990;SDS011;22064;42.672;23.282;2023-02-28T11:53:02;34.30;;;15.15;;
35990;SDS011;22064;42.672;23.282;2023-02-28T11:55:39;39.33;;;14.88;;
35990;SDS011;22064;42.672;23.282;2023-02-28T11:58:17;34.65;;;14.20;;
35990;SDS011;22064;42.672;23.282;2023-02-28T12:01:00;36.92;;;13.90;;
35990;SDS011;22064;42.672;23.282;2023-02-28T12:04:12;33.67;;;14.40;;
35990;SDS011;22064;42.672;23.282;2023-02-28T12:17:46;32.97;;;14.60;;
35990;SDS011;22064;42.672;23.282;2023-02-28T12:23:10;35.28;;;14.73;;
35990;SDS011;22064;42.672;23.282;2023-02-28T12:28:16;33.45;;;14.38;;
35990;SDS011;22064;42.672;23.282;2023-02-28T12:30:52;36.28;;;13.85;;
35990;SDS011;22064;42.672;23.282;2023-02-28T12:33:22;34.20;;;14.50;;
35990;SDS011;22064;42.672;23.282;2023-02-28T12:35:54;38.30;;;15.13;;
35990;SDS011;22064;42.672;23.282;2023-02-28T12:40:55;38.87;;;14.63;;
35990;SDS011;22064;42.672;23.282;2023-02-28T12:43:27;34.00;;;14.25;;
35990;SDS011;22064;42.672;23.282;2023-02-28T12:46:02;36.00;;;14.40;;
35990;SDS011;22064;42.672;23.282;2023-02-28T12:48:40;33.28;;;14.70;;
35990;SDS011;22064;42.672;23.282;2023-02-28T12:51:07;36.35;;;14.07;;
35990;SDS011;22064;42.672;23.282;2023-02-28T12:53:39;33.60;;;13.90;;
35990;SDS011;22064;42.672;23.282;2023-02-28T12:58:39;32.03;;;14.95;;
35990;SDS011;22064;42.672;23.282;2023-02-28T13:03:44;35.95;;;14.98;;
35990;SDS011;22064;42.672;23.282;2023-02-28T13:09:16;31.75;;;13.52;;
35990;SDS011;22064;42.672;23.282;2023-02-28T13:14:18;33.72;;;13.52;;
35990;SDS011;22064;42.672;23.282;2023-02-28T13:19:23;33.78;;;13.07;;
35990;SDS011;22064;42.672;23.282;2023-02-28T13:29:37;32.15;;;13.07;;
35990;SDS011;22064;42.672;23.282;2023-02-28T13:34:32;33.90;;;13.65;;
35990;SDS011;22064;42.672;23.282;2023-02-28T13:39:48;30.38;;;12.05;;
35990;SDS011;22064;42.672;23.282;2023-02-28T13:42:23;33.83;;;13.50;;
35990;SDS011;22064;42.672;23.282;2023-02-28T13:47:40;32.03;;;11.68;;
35990;SDS011;22064;42.672;23.282;2023-02-28T14:01:34;26.38;;;9.60;;
35990;SDS011;22064;42.672;23.282;2023-02-28T14:07:42;27.55;;;10.50;;
35990;SDS011;22064;42.672;23.282;2023-02-28T14:10:20;25.83;;;10.07;;
35990;SDS011;22064;42.672;23.282;2023-02-28T14:20:49;26.63;;;10.43;;
35990;SDS011;22064;42.672;23.282;2023-02-28T14:34:58;33.85;;;11.80;;
35990;SDS011;22064;42.672;23.282;2023-02-28T14:37:40;30.67;;;12.10;;
35990;SDS011;22064;42.672;23.282;2023-02-28T14:40:15;30.67;;;11.97;;
35990;SDS011;22064;42.672;23.282;2023-02-28T14:42:47;30.48;;;12.43;;
35990;SDS011;22064;42.672;23.282;2023-02-28T14:45:20;32.58;;;12.13;;
35990;SDS011;22064;42.672;23.282;2023-02-28T14:47:47;29.10;;;11.00;;
35990;SDS011;22064;42.672;23.282;2023-02-28T14:50:18;33.53;;;11.95;;
35990;SDS011;22064;42.672;23.282;2023-02-28T14:52:46;33.30;;;11.13;;
35990;SDS011;22064;42.672;23.282;2023-02-28T14:55:14;33.13;;;12.52;;
35990;SDS011;22064;42.672;23.282;2023-02-28T14:57:54;29.67;;;12.30;;
35990;SDS011;22064;42.672;23.282;2023-02-28T15:00:29;31.73;;;11.50;;
35990;SDS011;22064;42.672;23.282;2023-02-28T15:02:58;31.77;;;11.98;;
35990;SDS011;22064;42.672;23.282;2023-02-28T15:08:16;31.38;;;11.45;;
35990;SDS011;22064;42.672;23.282;2023-02-28T15:10:50;36.67;;;11.40;;
35990;SDS011;22064;42.672;23.282;2023-02-28T15:13:19;26.63;;;11.07;;
35990;SDS011;22064;42.672;23.282;2023-02-28T15:15:48;30.73;;;11.15;;
35990;SDS011;22064;42.672;23.282;2023-02-28T15:18:31;31.67;;;11.95;;
35990;SDS011;22064;42.672;23.282;2023-02-28T15:21:10;32.83;;;12.25;;
35990;SDS011;22064;42.672;23.282;2023-02-28T15:23:39;30.58;;;11.88;;
35990;SDS011;22064;42.672;23.282;2023-02-28T15:28:38;28.88;;;11.27;;
35990;SDS011;22064;42.672;23.282;2023-02-28T15:31:16;58.70;;;26.40;;
35990;SDS011;22064;42.672;23.282;2023-02-28T15:33:55;30.92;;;12.48;;
35990;SDS011;22064;42.672;23.282;2023-02-28T15:36:26;29.08;;;11.43;;
35990;SDS011;22064;42.672;23.282;2023-02-28T15:38:57;31.02;;;11.23;;
35990;SDS011;22064;42.672;23.282;2023-02-28T15:41:36;28.67;;;10.93;;
35990;SDS011;22064;42.672;23.282;2023-02-28T15:49:45;25.77;;;9.68;;
35990;SDS011;22064;42.672;23.282;2023-02-28T15:52:45;29.63;;;10.48;;
35990;SDS011;22064;42.672;23.282;2023-02-28T15:55:11;27.08;;;10.40;;
35990;SDS011;22064;42.672;23.282;2023-02-28T15:57:45;24.02;;;10.63;;
35990;SDS011;22064;42.672;23.282;2023-02-28T16:00:15;25.90;;;11.60;;
35990;SDS011;22064;42.672;23.282;2023-02-28T16:02:44;29.23;;;11.57;;
35990;SDS011;22064;42.672;23.282;2023-02-28T16:07:39;27.83;;;10.07;;
35990;SDS011;22064;42.672;23.282;2023-02-28T16:10:06;21.65;;;9.27;;
35990;SDS011;22064;42.672;23.282;2023-02-28T16:12:36;27.17;;;11.02;;
35990;SDS011;22064;42.672;23.282;2023-02-28T16:15:08;23.85;;;11.10;;
35990;SDS011;22064;42.672;23.282;2023-02-28T16:17:44;23.27;;;10.77;;
35990;SDS011;22064;42.672;23.282;2023-02-28T16:20:13;24.70;;;10.48;;
35990;SDS011;22064;42.672;23.282;2023-02-28T16:22:40;25.75;;;10.98;;
35990;SDS011;22064;42.672;23.282;2023-02-28T16:25:10;24.85;;;11.40;;
35990;SDS011;22064;42.672;23.282;2023-02-28T16:27:37;24.13;;;10.95;;
35990;SDS011;22064;42.672;23.282;2023-02-28T16:30:04;26.20;;;10.75;;
35990;SDS011;22064;42.672;23.282;2023-02-28T16:32:31;23.95;;;10.82;;
35990;SDS011;22064;42.672;23.282;2023-02-28T16:35:01;21.77;;;10.30;;
35990;SDS011;22064;42.672;23.282;2023-02-28T16:37:28;20.50;;;9.63;;
35990;SDS011;22064;42.672;23.282;2023-02-28T16:39:54;22.55;;;10.00;;
35990;SDS011;22064;42.672;23.282;2023-02-28T16:42:25;22.10;;;10.00;;
35990;SDS011;22064;42.672;23.282;2023-02-28T16:44:54;21.67;;;9.88;;
35990;SDS011;22064;42.672;23.282;2023-02-28T16:47:21;20.80;;;8.90;;
35990;SDS011;22064;42.672;23.282;2023-02-28T16:49:47;22.80;;;9.85;;
35990;SDS011;22064;42.672;23.282;2023-02-28T16:52:13;21.10;;;9.55;;
35990;SDS011;22064;42.672;23.282;2023-02-28T16:54:40;23.48;;;8.55;;
35990;SDS011;22064;42.672;23.282;2023-02-28T16:57:08;23.30;;;9.93;;
35990;SDS011;22064;42.672;23.282;2023-02-28T16:59:42;21.08;;;8.95;;
35990;SDS011;22064;42.672;23.282;2023-02-28T17:02:10;21.10;;;8.68;;
35990;SDS011;22064;42.672;23.282;2023-02-28T17:04:38;19.25;;;8.90;;
35990;SDS011;22064;42.672;23.282;2023-02-28T17:07:04;31.40;;;9.05;;
35990;SDS011;22064;42.672;23.282;2023-02-28T17:09:30;19.23;;;8.80;;
35990;SDS011;22064;42.672;23.282;2023-02-28T17:11:56;18.65;;;8.25;;
35990;SDS011;22064;42.672;23.282;2023-02-28T17:14:22;22.83;;;7.82;;
35990;SDS011;22064;42.672;23.282;2023-02-28T17:16:49;16.83;;;7.80;;